Time;durP1;ratioP1;P1;durP2;ratioP2;P2;SDS_P1;SDS_P2;PMS_P1;PMS_P2;Temp;Humidity;BMP_temperature;BMP_pressure;BME280_temperature;BME280_humidity;BME280_pressure;Samples;Min_cycle;Max_cycle;Signal;HPM_P1;HPM_P2
2021/07/26 00:00:58;;;;;;;13.93;10.68;;;;;;;17.64;100.00;99957.25;5083518;28;20031;-81
2021/07/26 00:03:23;;;;;;;16.38;10.60;;;;;;;17.70;100.00;99952.53;5101274;28;20502;-81
2021/07/26 00:05:59;;;;;;;13.73;10.27;;;;;;;17.76;100.00;99947.84;5101900;28;20464;-81
2021/07/26 00:08:25;;;;;;;14.20;10.85;;;;;;;17.82;100.00;99950.16;5083037;28;20020;-81
2021/07/26 00:11:07;;;;;;;13.65;10.15;;;;;;;17.88;100.00;99941.94;5099892;28;20050;-81
2021/07/26 00:13:34;;;;;;;13.43;10.00;;;;;;;18.15;100.00;99945.56;5082574;28;20024;-81
2021/07/26 00:15:59;;;;;;;12.65;9.75;;;;;;;18.25;100.00;99942.38;5081954;28;20020;-81
2021/07/26 00:18:27;;;;;;;14.93;9.88;;;;;;;18.48;100.00;99941.00;5101028;28;20441;-81
2021/07/26 00:20:52;;;;;;;15.63;10.63;;;;;;;18.64;100.00;99952.25;5100958;28;20039;-81
2021/07/26 00:23:17;;;;;;;14.48;9.95;;;;;;;18.73;100.00;99948.25;5100989;28;20028;-81
2021/07/26 00:25:43;;;;;;;12.00;9.43;;;;;;;18.89;100.00;99948.13;5082488;28;20028;-81
2021/07/26 00:28:08;;;;;;;12.85;9.07;;;;;;;18.98;100.00;99945.78;5083023;28;20027;-81
2021/07/26 00:30:35;;;;;;;10.15;7.63;;;;;;;18.96;100.00;99939.75;5101198;28;20518;-81
2021/07/26 00:33:00;;;;;;;12.82;8.35;;;;;;;18.94;100.00;99941.66;5082613;28;20020;-81
2021/07/26 00:35:25;;;;;;;12.80;9.50;;;;;;;18.69;100.00;99944.94;5101304;28;20027;-81
2021/07/26 00:37:51;;;;;;;12.30;8.90;;;;;;;18.48;100.00;99936.59;5101508;28;20088;-81
2021/07/26 00:40:16;;;;;;;13.38;9.07;;;;;;;18.37;100.00;99944.25;5101539;28;20028;-81
2021/07/26 00:42:42;;;;;;;12.70;8.07;;;;;;;18.31;100.00;99944.63;5081998;28;20031;-81
2021/07/26 00:45:07;;;;;;;11.95;8.80;;;;;;;18.22;100.00;99943.41;5101554;28;20020;-81
2021/07/26 00:47:33;;;;;;;12.80;8.75;;;;;;;18.14;100.00;99943.88;5100666;28;20028;-81
2021/07/26 00:49:58;;;;;;;12.50;9.00;;;;;;;18.01;100.00;99942.91;5081986;28;20430;-81
2021/07/26 00:52:25;;;;;;;11.65;8.60;;;;;;;18.06;100.00;99934.75;5100862;28;20032;-81
2021/07/26 00:54:52;;;;;;;13.23;8.68;;;;;;;17.99;100.00;99936.91;5082292;28;20073;-81
2021/07/26 00:57:19;;;;;;;12.38;9.23;;;;;;;17.99;100.00;99936.91;5100963;28;20027;-81
2021/07/26 00:59:45;;;;;;;11.88;9.00;;;;;;;17.83;100.00;99938.75;5082265;28;20386;-81
2021/07/26 01:02:10;;;;;;;11.63;8.85;;;;;;;17.70;100.00;99935.94;5082306;28;20020;-81
2021/07/26 01:04:35;;;;;;;14.82;10.30;;;;;;;17.62;100.00;99940.78;5100038;28;20384;-81
2021/07/26 01:07:01;;;;;;;12.98;10.45;;;;;;;17.58;100.00;99948.00;5098241;28;20028;-81
2021/07/26 01:09:27;;;;;;;13.75;10.77;;;;;;;17.62;100.00;99946.03;5100659;28;20376;-81
2021/07/26 01:11:52;;;;;;;13.15;10.70;;;;;;;17.71;100.00;99946.34;5099909;28;20028;-80
2021/07/26 01:14:18;;;;;;;15.95;11.27;;;;;;;17.75;100.00;99949.63;5081550;28;20091;-81
2021/07/26 01:16:47;;;;;;;14.57;11.27;;;;;;;17.85;100.00;99955.22;5099996;28;20467;-81
2021/07/26 01:19:16;;;;;;;16.02;11.02;;;;;;;17.85;100.00;99957.84;5099835;28;20076;-81
2021/07/26 01:21:44;;;;;;;16.95;11.98;;;;;;;17.88;100.00;99955.88;5100140;28;20618;-81
2021/07/26 01:24:09;;;;;;;15.50;12.10;;;;;;;17.70;100.00;99954.28;5099673;28;20020;-81
2021/07/26 01:26:35;;;;;;;16.27;12.20;;;;;;;17.76;100.00;99953.94;5099915;28;20032;-81
2021/07/26 01:29:06;;;;;;;15.07;11.52;;;;;;;17.70;100.00;99957.78;5081446;28;20022;-81
2021/07/26 01:31:32;;;;;;;14.68;12.00;;;;;;;17.69;100.00;99963.94;5097977;28;20028;-81
2021/07/26 01:33:57;;;;;;;16.20;11.70;;;;;;;17.67;100.00;99963.19;5097916;28;20024;-81
2021/07/26 01:36:24;;;;;;;17.73;13.02;;;;;;;17.59;100.00;99965.41;5098996;28;20027;-81
2021/07/26 01:38:53;;;;;;;16.70;12.60;;;;;;;17.57;100.00;99974.28;5099236;28;20067;-81
2021/07/26 01:41:28;;;;;;;17.90;12.13;;;;;;;17.56;100.00;99975.22;5100324;28;20020;-81
2021/07/26 01:44:04;;;;;;;17.92;13.25;;;;;;;17.56;100.00;99975.22;5098131;28;20031;-80
2021/07/26 01:47:00;;;;;;;14.55;11.68;;;;;;;17.66;100.00;99971.97;5099432;28;20036;-81
2021/07/26 01:49:47;;;;;;;15.63;11.75;;;;;;;17.64;100.00;99973.88;5100097;28;20077;-81
2021/07/26 01:52:13;;;;;;;18.02;12.02;;;;;;;17.59;100.00;99978.53;5099640;28;20040;-81
2021/07/26 01:54:39;;;;;;;14.25;12.68;;;;;;;17.57;100.00;99987.41;5096800;28;20020;-81
2021/07/26 01:57:04;;;;;;;14.65;12.02;;;;;;;17.59;100.00;99993.41;5099140;28;20031;-81
2021/07/26 01:59:30;;;;;;;15.02;11.32;;;;;;;17.65;100.00;99987.81;5100590;28;20031;-81
2021/07/26 02:01:56;;;;;;;15.95;11.32;;;;;;;17.64;100.00;99992.22;5099572;28;20020;-81
2021/07/26 02:04:21;;;;;;;15.55;12.85;;;;;;;17.64;100.00;99992.22;5080937;28;20111;-81
2021/07/26 02:06:46;;;;;;;17.58;12.50;;;;;;;17.59;100.00;99996.88;5080464;28;20036;-81
2021/07/26 02:09:12;;;;;;;16.05;12.00;;;;;;;17.56;100.00;99985.72;5081002;28;20035;-81
2021/07/26 02:11:37;;;;;;;14.90;11.95;;;;;;;17.52;100.00;99985.06;5080925;28;20157;-81
2021/07/26 02:14:09;;;;;;;18.58;12.27;;;;;;;17.60;100.00;99988.06;5079976;28;20521;-81
2021/07/26 02:16:34;;;;;;;15.82;11.88;;;;;;;17.60;100.00;99988.06;5098809;28;20030;-81
2021/07/26 02:18:59;;;;;;;17.85;12.68;;;;;;;17.62;100.00;99986.22;5079887;28;20111;-81
2021/07/26 02:21:25;;;;;;;15.73;12.30;;;;;;;17.59;100.00;99983.75;5079666;28;20110;-81
2021/07/26 02:23:50;;;;;;;14.18;11.90;;;;;;;17.59;100.00;99986.38;5080332;28;20024;-81
2021/07/26 02:26:15;;;;;;;17.00;12.30;;;;;;;17.53;100.00;99989.34;5080919;28;20097;-81
2021/07/26 02:28:40;;;;;;;17.02;12.57;;;;;;;17.52;100.00;99986.81;5099056;28;20024;-81
2021/07/26 02:31:06;;;;;;;17.77;12.77;;;;;;;17.44;100.00;99989.88;5080822;28;20016;-81
2021/07/26 02:33:31;;;;;;;16.58;13.02;;;;;;;17.33;100.00;99986.97;5079942;28;20053;-81
2021/07/26 02:35:56;;;;;;;18.13;13.68;;;;;;;17.23;100.00;99991.91;5080099;28;20019;-81
2021/07/26 02:38:21;;;;;;;16.08;12.85;;;;;;;17.23;100.00;99982.25;5080096;28;20024;-81
2021/07/26 02:40:47;;;;;;;16.90;13.50;;;;;;;17.20;100.00;99989.44;5079658;28;20028;-81
2021/07/26 02:43:12;;;;;;;20.27;13.55;;;;;;;17.21;100.00;99988.50;5079745;28;20031;-81
2021/07/26 02:45:38;;;;;;;19.25;13.35;;;;;;;17.17;100.00;99977.34;5097538;28;20424;-80
2021/07/26 02:48:03;;;;;;;16.48;13.77;;;;;;;17.18;100.00;99986.03;5098248;28;20016;-81
2021/07/26 02:50:29;;;;;;;19.48;14.05;;;;;;;17.14;100.00;99988.00;5096339;28;20016;-81
2021/07/26 02:52:54;;;;;;;17.67;14.35;;;;;;;17.14;100.00;99989.78;5079275;28;20039;-81
2021/07/26 02:55:19;;;;;;;19.75;14.57;;;;;;;17.13;100.00;99990.72;5078699;28;20472;-81
2021/07/26 02:57:45;;;;;;;20.15;15.02;;;;;;;17.13;100.00;99994.19;5081428;28;20020;-81
2021/07/26 03:00:11;;;;;;;16.58;13.88;;;;;;;17.15;100.00;99989.72;5083620;28;20506;-81
2021/07/26 03:02:37;;;;;;;20.17;15.77;;;;;;;17.14;100.00;99990.63;5102066;28;20039;-81
2021/07/26 03:05:03;;;;;;;18.95;14.55;;;;;;;17.12;100.00;99997.75;5100964;28;20020;-81
2021/07/26 03:07:30;;;;;;;18.20;14.95;;;;;;;17.14;100.00;99997.63;5101125;28;20027;-81
2021/07/26 03:09:55;;;;;;;21.67;15.43;;;;;;;17.12;100.00;99995.13;5099390;28;20110;-81
2021/07/26 03:12:20;;;;;;;20.15;14.88;;;;;;;17.16;100.00;99995.78;5082672;28;20089;-81
2021/07/26 03:14:45;;;;;;;22.77;16.42;;;;;;;17.11;100.00;99997.81;5101066;28;20036;-81
2021/07/26 03:17:11;;;;;;;18.48;14.95;;;;;;;17.14;100.00;99997.63;5082703;28;20020;-81
2021/07/26 03:19:36;;;;;;;17.60;14.27;;;;;;;17.18;100.00;100000.03;5101320;28;20032;-81
2021/07/26 03:22:37;;;;;;;18.17;15.43;;;;;;;17.17;100.00;100005.34;5082516;28;20039;-81
2021/07/26 03:25:02;;;;;;;18.02;15.02;;;;;;;17.19;100.00;99996.47;5040134;28;20124;-81
2021/07/26 03:27:27;;;;;;;21.70;15.50;;;;;;;17.28;100.00;99999.53;5082805;28;20028;-81
2021/07/26 03:29:53;;;;;;;19.80;15.48;;;;;;;17.31;100.00;99994.09;5101628;28;20016;-81
2021/07/26 03:32:18;;;;;;;20.58;15.23;;;;;;;17.28;100.00;100000.38;5082448;28;20047;-81
2021/07/26 03:34:43;;;;;;;22.92;15.25;;;;;;;17.29;100.00;99996.78;5082253;28;20027;-81
2021/07/26 03:37:09;;;;;;;20.38;15.43;;;;;;;17.34;100.00;100000.03;5083632;28;20024;-81
2021/07/26 03:39:34;;;;;;;19.92;15.20;;;;;;;17.43;100.00;100001.28;5101305;28;20384;-81
2021/07/26 03:42:00;;;;;;;19.63;15.05;;;;;;;17.50;100.00;100002.63;5083418;28;20055;-81
2021/07/26 03:44:25;;;;;;;19.13;16.00;;;;;;;17.53;100.00;100007.72;5100791;28;20598;-81
2021/07/26 03:46:50;;;;;;;17.85;14.82;;;;;;;17.64;100.00;100005.34;5101745;28;20501;-81
2021/07/26 03:49:15;;;;;;;23.52;14.82;;;;;;;17.72;100.00;100004.91;5101267;28;20016;-81
2021/07/26 03:51:41;;;;;;;18.90;15.00;;;;;;;17.72;100.00;100000.50;5082784;28;20026;-81
2021/07/26 03:54:06;;;;;;;20.65;16.25;;;;;;;17.72;100.00;100000.50;5081131;28;20036;-81
2021/07/26 03:56:31;;;;;;;18.90;14.75;;;;;;;17.77;100.00;100004.66;5096111;28;20106;-81
2021/07/26 03:58:56;;;;;;;18.48;15.57;;;;;;;17.77;100.00;100000.28;5077932;28;20032;-81
2021/07/26 04:01:22;;;;;;;17.42;14.93;;;;;;;17.76;100.00;100003.78;5077887;28;20083;-81
2021/07/26 04:03:47;;;;;;;18.30;14.85;;;;;;;17.82;100.00;100000.00;5095958;28;20077;-81
2021/07/26 04:06:15;;;;;;;19.45;15.10;;;;;;;17.90;100.00;100003.03;5077724;28;20043;-81
2021/07/26 04:08:42;;;;;;;18.38;15.10;;;;;;;17.95;100.00;100008.88;5095223;28;20028;-81
2021/07/26 04:11:15;;;;;;;20.13;13.95;;;;;;;18.09;100.00;100003.66;5077435;28;20111;-81
2021/07/26 04:13:41;;;;;;;17.15;14.02;;;;;;;18.16;100.00;99998.88;5095279;28;20023;-80
2021/07/26 04:16:06;;;;;;;19.67;13.70;;;;;;;18.17;100.00;100006.69;5077268;28;20388;-81
2021/07/26 04:18:32;;;;;;;15.93;13.10;;;;;;;18.22;100.00;100001.16;5095413;28;20024;-81
2021/07/26 04:20:57;;;;;;;17.10;12.88;;;;;;;18.27;100.00;100003.53;5095188;28;20052;-81
2021/07/26 04:23:23;;;;;;;14.85;12.45;;;;;;;18.35;100.00;100010.00;5095252;28;20035;-81
2021/07/26 04:25:50;;;;;;;17.00;13.55;;;;;;;18.44;100.00;100002.50;5095940;28;20023;-81
2021/07/26 04:28:16;;;;;;;18.75;13.50;;;;;;;18.46;100.00;100006.72;5095151;28;20038;-81
2021/07/26 04:30:41;;;;;;;20.20;13.98;;;;;;;18.41;100.00;100014.03;5095136;28;20110;-81
2021/07/26 04:33:07;;;;;;;15.27;13.02;;;;;;;18.45;100.00;100005.06;5076929;28;20422;-81
2021/07/26 04:35:32;;;;;;;16.00;13.02;;;;;;;18.49;100.00;100006.53;5077093;28;20023;-81
2021/07/26 04:37:58;;;;;;;25.17;13.68;;;;;;;18.57;100.00;100001.69;5077028;28;20016;-81
2021/07/26 04:40:23;;;;;;;15.05;13.07;;;;;;;18.66;100.00;100002.91;5095036;28;20020;-81
2021/07/26 04:42:50;;;;;;;17.05;12.40;;;;;;;18.69;100.00;100007.13;5095115;28;20028;-81
2021/07/26 04:45:16;;;;;;;21.02;13.68;;;;;;;18.77;100.00;99995.25;5077327;28;20476;-81
2021/07/26 04:47:41;;;;;;;17.00;12.68;;;;;;;18.76;100.00;99990.94;5094968;28;20101;-81
2021/07/26 04:50:08;;;;;;;19.02;12.73;;;;;;;18.81;100.00;99993.25;5094897;28;20043;-80
2021/07/26 04:52:34;;;;;;;19.67;13.77;;;;;;;18.86;100.00;99994.69;5076943;28;20024;-80
2021/07/26 04:54:59;;;;;;;15.23;12.68;;;;;;;18.99;100.00;99994.75;5095160;28;20024;-81
2021/07/26 04:57:27;;;;;;;17.90;12.82;;;;;;;19.07;100.00;100000.38;5076677;28;20093;-81
2021/07/26 04:59:53;;;;;;;16.92;12.20;;;;;;;19.17;100.00;99998.03;5094763;28;20050;-81
2021/07/26 05:02:18;;;;;;;16.25;12.35;;;;;;;19.18;100.00;99999.72;5076355;28;20547;-81
2021/07/26 05:04:43;;;;;;;14.48;11.75;;;;;;;19.21;100.00;100009.19;5094574;28;20089;-81
2021/07/26 05:07:08;;;;;;;14.23;11.80;;;;;;;19.25;100.00;100010.69;5076626;28;20454;-81
2021/07/26 05:09:38;;;;;;;17.15;11.77;;;;;;;19.36;100.00;100007.38;5094642;28;20094;-81
2021/07/26 05:12:12;;;;;;;16.30;11.15;;;;;;;19.35;100.00;100010.97;5076347;28;20448;-81
2021/07/26 05:14:45;;;;;;;15.90;10.85;;;;;;;19.32;100.00;100012.00;5116060;22;20035;-84
2021/07/26 05:17:10;;;;;;;16.80;11.38;;;;;;;19.34;100.00;100015.38;5077147;28;20024;-84
2021/07/26 05:19:36;;;;;;;20.70;11.00;;;;;;;19.29;100.00;100010.41;5076549;28;20450;-84
2021/07/26 05:22:02;;;;;;;15.98;10.32;;;;;;;19.35;100.00;100011.81;5075972;28;20118;-83
2021/07/26 05:24:28;;;;;;;16.92;10.45;;;;;;;19.36;100.00;100013.47;5075985;28;20468;-84
2021/07/26 05:27:01;;;;;;;13.50;10.75;;;;;;;19.24;100.00;100011.63;5077186;28;20052;-83
2021/07/26 05:29:27;;;;;;;13.05;9.80;;;;;;;19.38;100.00;100011.59;5077193;28;20069;-83
2021/07/26 05:31:53;;;;;;;13.65;9.52;;;;;;;19.46;100.00;100008.50;5075939;28;20384;-83
2021/07/26 05:34:18;;;;;;;14.32;9.40;;;;;;;19.52;100.00;100016.84;5075780;28;20016;-83
2021/07/26 05:36:43;;;;;;;13.32;10.43;;;;;;;19.63;100.00;100018.75;5094442;28;20028;-83
2021/07/26 05:39:09;;;;;;;11.15;7.32;;;;;;;19.93;100.00;100029.13;5076704;28;20084;-83
2021/07/26 05:41:34;;;;;;;13.93;7.05;;;;;;;20.10;100.00;100029.78;5096839;28;20066;-81
2021/07/26 05:43:59;;;;;;;8.63;6.00;;;;;;;20.26;100.00;100025.22;5078773;28;20020;-81
2021/07/26 05:46:24;;;;;;;8.13;5.82;;;;;;;20.25;100.00;100034.03;5096594;28;20110;-81
2021/07/26 05:48:50;;;;;;;8.55;5.72;;;;;;;20.30;100.00;100026.69;5097274;28;20403;-81
2021/07/26 05:51:15;;;;;;;10.65;6.22;;;;;;;20.27;99.60;100037.44;5097193;28;20360;-81
2021/07/26 05:53:40;;;;;;;8.82;6.13;;;;;;;20.31;97.91;100028.38;5096868;28;20024;-81
2021/07/26 05:56:06;;;;;;;8.57;5.63;;;;;;;20.39;99.53;100022.59;5080362;28;20036;-82
2021/07/26 05:58:33;;;;;;;10.35;5.45;;;;;;;20.36;99.95;100025.44;5076999;28;20277;-82
2021/07/26 06:01:10;;;;;;;8.88;5.93;;;;;;;20.39;98.51;100019.97;5095655;28;20085;-82
2021/07/26 06:03:36;;;;;;;9.13;5.55;;;;;;;20.43;96.97;100017.00;5095019;28;20093;-82
2021/07/26 06:06:04;;;;;;;9.30;5.63;;;;;;;20.48;99.42;100006.16;5095459;28;20024;-82
2021/07/26 06:08:29;;;;;;;11.73;5.15;;;;;;;20.49;98.34;100007.84;5096014;28;20061;-82
2021/07/26 06:10:55;;;;;;;9.13;5.20;;;;;;;20.62;99.68;100005.22;5096053;28;20023;-82
2021/07/26 06:13:20;;;;;;;9.15;4.85;;;;;;;20.75;96.96;100006.09;5095690;28;20467;-82
2021/07/26 06:15:45;;;;;;;8.13;5.20;;;;;;;20.71;99.91;99998.50;5095159;28;20040;-82
2021/07/26 06:18:10;;;;;;;8.33;5.40;;;;;;;20.96;100.00;99993.19;5094663;28;20277;-82
2021/07/26 06:20:36;;;;;;;8.25;5.22;;;;;;;21.01;100.00;99992.88;5095301;28;20286;-82
2021/07/26 06:23:02;;;;;;;7.38;5.10;;;;;;;21.18;97.10;100000.41;5076944;28;20027;-82
2021/07/26 06:25:27;;;;;;;7.43;5.18;;;;;;;21.31;96.75;99992.47;5095856;28;20016;-82
2021/07/26 06:27:54;;;;;;;7.50;4.90;;;;;;;21.44;94.31;99992.47;5077451;28;20028;-82
2021/07/26 06:30:19;;;;;;;9.15;4.90;;;;;;;22.02;90.19;99998.72;5096384;28;20043;-82
2021/07/26 06:32:44;;;;;;;7.38;4.38;;;;;;;21.82;84.93;99992.28;5080521;28;20533;-82
2021/07/26 06:35:10;;;;;;;7.63;4.20;;;;;;;22.04;87.86;100002.06;5082743;28;20410;-82
2021/07/26 06:37:35;;;;;;;7.60;4.80;;;;;;;22.16;88.23;99997.69;5082351;28;20024;-82
2021/07/26 06:40:02;;;;;;;9.50;4.23;;;;;;;22.00;88.96;100011.19;5100061;28;20024;-82
2021/07/26 06:42:27;;;;;;;7.53;4.53;;;;;;;21.93;89.79;100005.53;5098050;28;20270;-84
2021/07/26 06:44:52;;;;;;;6.68;3.80;;;;;;;21.81;88.39;100012.56;5097443;28;20110;-83
2021/07/26 06:47:18;;;;;;;6.80;4.03;;;;;;;21.91;88.65;100009.25;5098094;28;20126;-82
2021/07/26 06:49:43;;;;;;;7.80;4.20;;;;;;;21.98;88.94;100010.47;5098266;28;20265;-82
2021/07/26 06:52:08;;;;;;;8.00;4.40;;;;;;;22.05;86.51;100014.34;5098338;28;20039;-82
2021/07/26 06:54:34;;;;;;;7.30;4.22;;;;;;;22.06;86.65;100014.22;5098933;28;20115;-82
2021/07/26 06:56:59;;;;;;;8.23;4.60;;;;;;;22.26;84.42;100015.41;5098774;28;20024;-82
2021/07/26 06:59:24;;;;;;;7.40;4.72;;;;;;;22.72;82.02;100022.47;5099214;28;20544;-82
2021/07/26 07:01:49;;;;;;;7.63;4.00;;;;;;;22.77;83.10;100026.53;5080414;28;20059;-82
2021/07/26 07:04:15;;;;;;;8.63;4.10;;;;;;;22.73;81.95;100025.94;5099365;28;20265;-82
2021/07/26 07:06:41;;;;;;;7.85;4.07;;;;;;;22.70;82.71;100028.81;5098437;28;20266;-82
2021/07/26 07:09:06;;;;;;;9.27;4.38;;;;;;;22.75;82.10;100024.88;5080795;28;20047;-82
2021/07/26 07:11:31;;;;;;;12.85;4.45;;;;;;;22.72;83.83;100022.47;5100131;28;20051;-82
2021/07/26 07:13:57;;;;;;;7.05;4.32;;;;;;;22.63;84.37;100025.81;5097331;28;20073;-82
2021/07/26 07:16:23;;;;;;;8.05;3.95;;;;;;;22.75;82.23;100027.50;5096701;28;20028;-82
2021/07/26 07:18:51;;;;;;;11.10;4.60;;;;;;;22.78;83.88;100026.41;5079152;28;20031;-83
2021/07/26 07:21:21;;;;;;;7.18;4.35;;;;;;;22.95;82.59;100025.13;5097063;28;20110;-83
2021/07/26 07:23:47;;;;;;;7.90;4.28;;;;;;;22.90;83.13;100029.91;5079253;28;20094;-82
2021/07/26 07:26:13;;;;;;;6.63;4.15;;;;;;;22.86;82.58;100033.75;5096687;28;20020;-82
2021/07/26 07:28:39;;;;;;;6.90;4.13;;;;;;;23.03;80.26;100035.97;5096944;28;20016;-82
2021/07/26 07:31:04;;;;;;;6.55;4.28;;;;;;;22.96;81.33;100038.22;5097023;28;20069;-82
2021/07/26 07:33:30;;;;;;;6.70;3.80;;;;;;;22.71;80.01;100044.53;5098444;28;20020;-82
2021/07/26 07:35:55;;;;;;;8.15;3.90;;;;;;;22.53;83.03;100041.50;5097010;28;20089;-82
2021/07/26 07:38:20;;;;;;;11.27;4.03;;;;;;;22.36;84.32;100033.22;5098238;28;20415;-82
2021/07/26 07:40:46;;;;;;;6.70;4.07;;;;;;;22.11;85.81;100037.66;5097425;28;20031;-82
2021/07/26 07:43:11;;;;;;;8.15;4.72;;;;;;;22.17;89.21;100045.16;5096511;28;20051;-82
2021/07/26 07:45:36;;;;;;;7.97;3.90;;;;;;;21.94;86.84;100038.06;5097230;28;20468;-82
2021/07/26 07:48:02;;;;;;;8.05;4.07;;;;;;;21.92;88.61;100047.88;5097809;28;20035;-82
2021/07/26 07:50:28;;;;;;;8.07;3.80;;;;;;;21.82;87.95;100045.91;5079972;28;20019;-81
2021/07/26 07:52:53;;;;;;;8.65;4.32;;;;;;;21.90;86.87;100041.88;5079731;28;20020;-81
2021/07/26 07:55:20;;;;;;;8.10;4.30;;;;;;;21.64;88.97;100054.34;5098069;28;20024;-83
2021/07/26 07:57:48;;;;;;;10.07;4.95;;;;;;;21.55;90.92;100059.34;5098844;28;20332;-82
2021/07/26 08:00:14;;;;;;;6.88;4.10;;;;;;;21.57;91.05;100057.41;5080071;28;20452;-82
2021/07/26 08:02:41;;;;;;;7.43;4.30;;;;;;;21.47;93.77;100053.78;5080271;28;20020;-82
2021/07/26 08:05:07;;;;;;;7.30;4.38;;;;;;;21.48;92.62;100058.09;5096944;28;20027;-82
2021/07/26 08:07:32;;;;;;;8.23;4.53;;;;;;;21.45;91.96;100062.75;5096701;28;20024;-82
2021/07/26 08:09:57;;;;;;;7.47;4.30;;;;;;;21.48;92.70;100051.97;5096659;28;20047;-82
2021/07/26 08:12:22;;;;;;;9.10;4.70;;;;;;;21.56;95.16;100054.91;5079053;28;20043;-82
2021/07/26 08:14:48;;;;;;;7.70;4.40;;;;;;;21.57;94.65;100067.97;5097100;28;20040;-82
2021/07/26 08:17:13;;;;;;;11.43;5.18;;;;;;;21.60;97.32;100066.91;5098131;28;20247;-82
2021/07/26 08:19:38;;;;;;;10.27;5.37;;;;;;;21.61;96.59;100065.97;5079735;28;20032;-82
2021/07/26 08:22:03;;;;;;;17.73;5.63;;;;;;;21.67;96.95;100072.59;5096885;28;20671;-82
2021/07/26 08:24:29;;;;;;;11.30;5.67;;;;;;;21.76;94.31;100069.28;5078041;28;20278;-84
2021/07/26 08:26:55;;;;;;;12.60;5.03;;;;;;;21.80;95.58;100063.69;5095978;28;20266;-84
2021/07/26 08:29:20;;;;;;;9.48;5.63;;;;;;;21.92;95.05;100069.88;5077941;28;20047;-84
2021/07/26 08:31:45;;;;;;;9.47;6.33;;;;;;;21.92;94.37;100072.50;5077796;28;20475;-83
2021/07/26 08:34:10;;;;;;;9.80;5.83;;;;;;;21.87;95.65;100063.25;5077503;28;20341;-83
2021/07/26 08:36:36;;;;;;;9.93;5.93;;;;;;;21.99;95.19;100073.75;5077747;28;20312;-83
2021/07/26 08:39:02;;;;;;;9.27;5.75;;;;;;;22.04;93.20;100068.97;5077486;28;20472;-82
2021/07/26 08:41:27;;;;;;;12.30;5.93;;;;;;;22.05;96.51;100069.81;5096047;28;20024;-83
2021/07/26 08:43:52;;;;;;;9.27;5.25;;;;;;;21.97;94.29;100066.88;5077568;28;20392;-84
2021/07/26 08:46:20;;;;;;;10.88;5.97;;;;;;;21.95;93.69;100066.13;5077273;28;20059;-83
2021/07/26 08:48:47;;;;;;;9.65;6.00;;;;;;;22.00;91.45;100066.66;5077320;28;20020;-84
2021/07/26 08:51:15;;;;;;;11.50;6.35;;;;;;;22.52;91.10;100070.72;5077612;28;20016;-83
2021/07/26 08:53:42;;;;;;;10.80;5.95;;;;;;;22.69;91.25;100072.06;5078301;28;20024;-84
2021/07/26 08:56:08;;;;;;;7.57;5.18;;;;;;;22.69;90.99;100075.56;5077604;28;20118;-83
2021/07/26 08:58:35;;;;;;;8.63;6.07;;;;;;;22.74;92.38;100068.09;5096147;28;20078;-83
2021/07/26 09:01:01;;;;;;;13.07;6.13;;;;;;;23.22;91.49;100064.44;5095722;28;20107;-83
2021/07/26 09:03:26;;;;;;;9.85;5.35;;;;;;;23.62;87.43;100061.28;5078233;28;20070;-83
2021/07/26 09:05:51;;;;;;;8.88;5.28;;;;;;;23.53;86.44;100062.84;5078110;28;20027;-83
2021/07/26 09:08:17;;;;;;;8.73;5.23;;;;;;;23.32;85.68;100062.75;5095694;28;20028;-84
2021/07/26 09:10:43;;;;;;;9.57;5.03;;;;;;;23.16;86.90;100068.41;5077282;28;20258;-83
2021/07/26 09:13:11;;;;;;;9.32;4.90;;;;;;;23.20;85.81;100074.31;5077507;28;20031;-83
2021/07/26 09:15:37;;;;;;;10.75;5.22;;;;;;;22.73;86.36;100074.38;5077497;28;20028;-84
2021/07/26 09:18:10;;;;;;;8.43;4.28;;;;;;;22.90;87.53;100080.16;5077253;28;20027;-84
2021/07/26 09:20:39;;;;;;;12.45;4.78;;;;;;;22.52;90.83;100081.28;5077448;28;20028;-84
2021/07/26 09:23:13;;;;;;;9.77;5.43;;;;;;;22.33;89.12;100079.19;5078013;28;20024;-83
2021/07/26 09:25:40;;;;;;;8.55;4.72;;;;;;;22.12;90.14;100083.41;5078416;28;20076;-83
2021/07/26 09:28:13;;;;;;;6.90;4.47;;;;;;;22.17;91.08;100086.59;5096171;28;20035;-83
2021/07/26 09:30:39;;;;;;;11.65;4.55;;;;;;;22.13;88.95;100093.00;5077586;28;20601;-83
2021/07/26 09:33:24;;;;;;;9.65;4.10;;;;;;;21.97;88.56;100090.66;5077490;28;20095;-83
2021/07/26 09:36:21;;;;;;;6.75;3.78;;;;;;;21.95;89.20;100095.19;5077958;28;20020;-83
2021/07/26 09:38:49;;;;;;;8.40;3.95;;;;;;;21.96;89.77;100103.00;5095615;28;20051;-84
2021/07/26 09:41:16;;;;;;;7.38;4.43;;;;;;;22.02;90.51;100096.44;5095902;28;20098;-84
2021/07/26 09:43:42;;;;;;;7.85;4.68;;;;;;;22.14;91.05;100114.03;5077062;28;20024;-85
2021/07/26 09:46:07;;;;;;;8.45;4.20;;;;;;;21.86;94.21;100119.63;5078079;28;20035;-85
2021/07/26 09:48:32;;;;;;;11.20;6.55;;;;;;;21.47;100.00;100132.94;5095702;28;20073;-84
2021/07/26 09:51:02;;;;;;;11.85;7.32;;;;;;;21.51;100.00;100129.13;5096045;28;20027;-84
2021/07/26 09:53:29;;;;;;;12.73;7.75;;;;;;;21.46;100.00;100127.75;5095915;28;20081;-83
2021/07/26 09:56:12;;;;;;;13.23;8.05;;;;;;;21.40;100.00;100130.81;5077616;28;20051;-83
2021/07/26 09:58:39;;;;;;;13.63;9.00;;;;;;;21.16;100.00;100123.66;5077440;28;20032;-85
2021/07/26 10:01:06;;;;;;;13.63;8.77;;;;;;;21.44;100.00;100124.41;5094627;28;20290;-86
2021/07/26 10:03:32;;;;;;;13.40;8.52;;;;;;;21.44;100.00;100127.03;5076552;28;20016;-86
2021/07/26 10:05:59;;;;;;;15.05;8.55;;;;;;;21.18;100.00;100129.63;5094164;28;20027;-85
2021/07/26 10:08:26;;;;;;;14.75;8.57;;;;;;;21.38;100.00;100130.94;5076202;28;20031;-84
2021/07/26 10:10:52;;;;;;;19.02;8.35;;;;;;;21.32;100.00;100126.91;5094144;28;20031;-85
2021/07/26 10:13:18;;;;;;;19.58;8.73;;;;;;;21.34;100.00;100132.09;5077109;28;20387;-83
2021/07/26 10:15:44;;;;;;;22.58;8.55;;;;;;;21.52;100.00;100124.66;5095400;28;20465;-82
2021/07/26 10:18:09;;;;;;;21.63;8.60;;;;;;;21.36;100.00;100132.84;5077840;28;20027;-82
2021/07/26 10:20:41;;;;;;;16.00;8.25;;;;;;;21.45;100.00;100131.34;5077489;28;20109;-82
2021/07/26 10:23:15;;;;;;;15.38;8.70;;;;;;;21.41;100.00;100136.00;5077382;28;20035;-82
2021/07/26 10:25:45;;;;;;;14.20;8.05;;;;;;;21.62;100.00;100128.38;5076267;28;20384;-82
2021/07/26 10:28:15;;;;;;;14.40;8.63;;;;;;;21.84;100.00;100125.88;5095591;28;20094;-82
2021/07/26 10:30:41;;;;;;;17.88;8.25;;;;;;;22.05;100.00;100127.91;5076600;28;20027;-82
2021/07/26 10:33:06;;;;;;;14.23;8.50;;;;;;;22.02;100.00;100131.63;5095073;28;20388;-82
2021/07/26 10:35:36;;;;;;;27.80;8.18;;;;;;;22.59;100.00;100126.59;5076345;28;20019;-82
2021/07/26 10:38:01;;;;;;;23.30;7.93;;;;;;;22.66;100.00;100126.03;5076661;28;20030;-82
2021/07/26 10:40:32;;;;;;;22.25;8.45;;;;;;;22.18;100.00;100120.81;5075996;28;20095;-82
2021/07/26 10:43:02;;;;;;;18.67;7.45;;;;;;;22.49;100.00;100129.09;5077027;28;20095;-82
2021/07/26 10:45:30;;;;;;;19.70;7.63;;;;;;;22.61;100.00;100136.09;5094081;28;20031;-82
2021/07/26 10:48:20;;;;;;;25.83;8.88;;;;;;;22.36;100.00;100128.34;5095109;28;20535;-83
2021/07/26 10:50:47;;;;;;;17.92;7.78;;;;;;;22.77;98.11;100132.31;5075871;28;20035;-83
2021/07/26 10:53:35;;;;;;;15.40;6.63;;;;;;;23.61;92.57;100116.00;5075933;28;20023;-82
2021/07/26 10:56:09;;;;;;;13.35;6.28;;;;;;;24.53;82.92;100124.44;5066003;28;20040;-82
2021/07/26 10:58:37;;;;;;;;;;;;;;;25.06;83.78;100122.69;5076423;28;20031;-82
2021/07/26 11:01:21;;;;;;;9.20;5.10;;;;;;;26.11;72.20;100120.56;5075316;28;19919;-83
2021/07/26 11:03:47;;;;;;;8.20;5.18;;;;;;;26.24;70.68;100102.53;5076280;28;20039;-83
2021/07/26 11:06:34;;;;;;;9.02;5.20;;;;;;;27.90;67.33;100105.56;5094025;28;20032;-82
2021/07/26 11:09:18;;;;;;;8.05;4.75;;;;;;;28.00;61.46;100091.16;5075934;28;20599;-82
2021/07/26 11:11:44;;;;;;;9.95;4.25;;;;;;;27.79;60.07;100095.94;5075913;28;20120;-82
2021/07/26 11:14:11;;;;;;;10.48;4.72;;;;;;;28.38;60.08;100088.31;5093604;28;20051;-82